Terminal Aerodrome Forecast
Issued by NWS Greer, SC

Home | Current Version | Previous Version | Text Only | Print | Product List | Glossary On
Versions: 1 2 3 4 5 6 7 8 9 10 11 12 13 14 15 16 17 18 19 20 21
000
FTUS42 KGSP 250857 AAA
TAFCLT
TAF AMD
KCLT 250857Z 2509/2606 19003KT P6SM SCT080
     FM251700 23006KT P6SM SCT060 BKN250
     FM260000 19003KT P6SM SCT060 BKN120=

USA.gov is the U.S. government's official web portal to all federal, state and local government web resources and services.